sensor_id;sensor_type;location;lat;lon;timestamp;pressure;altitude;pressure_sealevel;temperature;humidity
59939;BME280;45801;51.810;19.444;2023-05-23T00:00:07;99066.48;;;14.40;57.52
59939;BME280;45801;51.810;19.444;2023-05-23T00:02:54;99063.27;;;14.39;57.70
59939;BME280;45801;51.810;19.444;2023-05-23T00:05:20;99059.73;;;14.38;57.54
59939;BME280;45801;51.810;19.444;2023-05-23T00:07:47;99057.89;;;14.35;57.46
59939;BME280;45801;51.810;19.444;2023-05-23T00:10:13;99055.35;;;14.32;57.83
59939;BME280;45801;51.810;19.444;2023-05-23T00:12:40;99052.66;;;14.30;57.63
59939;BME280;45801;51.810;19.444;2023-05-23T00:15:08;99052.61;;;14.28;57.83
59939;BME280;45801;51.810;19.444;2023-05-23T00:17:35;99050.09;;;14.26;57.93
59939;BME280;45801;51.810;19.444;2023-05-23T00:20:03;99050.05;;;14.24;57.91
59939;BME280;45801;51.810;19.444;2023-05-23T00:22:31;99049.29;;;14.22;57.87
59939;BME280;45801;51.810;19.444;2023-05-23T00:24:57;99046.60;;;14.21;57.85
59939;BME280;45801;51.810;19.444;2023-05-23T00:27:27;99044.45;;;14.19;57.86
59939;BME280;45801;51.810;19.444;2023-05-23T00:29:54;99047.59;;;14.18;58.02
59939;BME280;45801;51.810;19.444;2023-05-23T00:32:20;99045.96;;;14.16;58.34
59939;BME280;45801;51.810;19.444;2023-05-23T00:34:46;99042.92;;;14.14;58.50
59939;BME280;45801;51.810;19.444;2023-05-23T00:37:13;99044.11;;;14.13;58.49
59939;BME280;45801;51.810;19.444;2023-05-23T00:39:40;99041.23;;;14.11;58.48
59939;BME280;45801;51.810;19.444;2023-05-23T00:42:07;99040.64;;;14.08;58.29
59939;BME280;45801;51.810;19.444;2023-05-23T00:44:33;99043.59;;;14.06;58.27
59939;BME280;45801;51.810;19.444;2023-05-23T00:47:00;99038.75;;;14.03;58.16
59939;BME280;45801;51.810;19.444;2023-05-23T00:49:27;99039.77;;;14.02;58.12
59939;BME280;45801;51.810;19.444;2023-05-23T00:51:55;99040.45;;;14.00;58.37
59939;BME280;45801;51.810;19.444;2023-05-23T00:54:24;99043.21;;;13.99;58.42
59939;BME280;45801;51.810;19.444;2023-05-23T00:56:53;99040.89;;;13.97;58.19
59939;BME280;45801;51.810;19.444;2023-05-23T00:59:24;99038.38;;;13.96;58.20
59939;BME280;45801;51.810;19.444;2023-05-23T01:01:53;99037.27;;;13.94;58.38
59939;BME280;45801;51.810;19.444;2023-05-23T01:04:21;99033.90;;;13.92;58.43
59939;BME280;45801;51.810;19.444;2023-05-23T01:06:53;99036.66;;;13.90;58.86
59939;BME280;45801;51.810;19.444;2023-05-23T01:09:20;99037.50;;;13.89;58.61
59939;BME280;45801;51.810;19.444;2023-05-23T01:15:03;99039.50;;;13.85;58.86
59939;BME280;45801;51.810;19.444;2023-05-23T01:20:21;99036.40;;;13.81;58.52
59939;BME280;45801;51.810;19.444;2023-05-23T01:25:44;99033.45;;;13.76;58.83
59939;BME280;45801;51.810;19.444;2023-05-23T01:28:20;99028.51;;;13.75;58.87
59939;BME280;45801;51.810;19.444;2023-05-23T01:30:51;99029.89;;;13.74;58.87
59939;BME280;45801;51.810;19.444;2023-05-23T01:33:19;99026.52;;;13.73;58.86
59939;BME280;45801;51.810;19.444;2023-05-23T01:35:48;99021.23;;;13.73;58.85
59939;BME280;45801;51.810;19.444;2023-05-23T01:38:14;99021.91;;;13.73;59.02
59939;BME280;45801;51.810;19.444;2023-05-23T01:40:41;99020.31;;;13.72;59.05
59939;BME280;45801;51.810;19.444;2023-05-23T01:43:08;99018.55;;;13.72;59.28
59939;BME280;45801;51.810;19.444;2023-05-23T01:45:35;99019.76;;;13.71;59.30
59939;BME280;45801;51.810;19.444;2023-05-23T01:48:03;99016.92;;;13.70;58.93
59939;BME280;45801;51.810;19.444;2023-05-23T01:50:31;99016.36;;;13.69;59.06
59939;BME280;45801;51.810;19.444;2023-05-23T01:52:59;99017.93;;;13.68;59.26
59939;BME280;45801;51.810;19.444;2023-05-23T01:55:26;99019.46;;;13.67;59.38
59939;BME280;45801;51.810;19.444;2023-05-23T01:57:55;99016.09;;;13.65;59.33
59939;BME280;45801;51.810;19.444;2023-05-23T02:00:22;99016.39;;;13.64;59.15
59939;BME280;45801;51.810;19.444;2023-05-23T02:02:49;99016.36;;;13.62;59.31
59939;BME280;45801;51.810;19.444;2023-05-23T02:05:16;99014.75;;;13.61;59.38
59939;BME280;45801;51.810;19.444;2023-05-23T02:07:42;99009.80;;;13.61;59.43
59939;BME280;45801;51.810;19.444;2023-05-23T02:10:09;99007.30;;;13.59;59.49
59939;BME280;45801;51.810;19.444;2023-05-23T02:12:35;99005.38;;;13.59;59.33
59939;BME280;45801;51.810;19.444;2023-05-23T02:15:02;99002.19;;;13.72;59.62
59939;BME280;45801;51.810;19.444;2023-05-23T02:17:28;98996.16;;;13.84;59.07
59939;BME280;45801;51.810;19.444;2023-05-23T02:19:56;98993.72;;;13.84;58.91
59939;BME280;45801;51.810;19.444;2023-05-23T02:22:23;98999.96;;;13.81;59.02
59939;BME280;45801;51.810;19.444;2023-05-23T02:24:52;98997.02;;;13.76;58.99
59939;BME280;45801;51.810;19.444;2023-05-23T02:27:19;98991.64;;;13.72;58.83
59939;BME280;45801;51.810;19.444;2023-05-23T02:29:45;98991.06;;;13.71;58.76
59939;BME280;45801;51.810;19.444;2023-05-23T02:32:12;98994.80;;;13.72;58.89
59939;BME280;45801;51.810;19.444;2023-05-23T02:34:38;98993.17;;;13.70;58.66
59939;BME280;45801;51.810;19.444;2023-05-23T02:37:05;98993.27;;;13.68;58.89
59939;BME280;45801;51.810;19.444;2023-05-23T02:39:34;98992.15;;;13.65;58.97
59939;BME280;45801;51.810;19.444;2023-05-23T02:42:01;98989.58;;;13.61;59.15
59939;BME280;45801;51.810;19.444;2023-05-23T02:44:28;98987.23;;;13.59;59.30
59939;BME280;45801;51.810;19.444;2023-05-23T02:46:54;98986.64;;;13.57;59.08
59939;BME280;45801;51.810;19.444;2023-05-23T02:49:21;98986.92;;;13.54;59.22
59939;BME280;45801;51.810;19.444;2023-05-23T02:51:47;98982.15;;;13.53;59.40
59939;BME280;45801;51.810;19.444;2023-05-23T02:54:14;98981.06;;;13.52;59.51
59939;BME280;45801;51.810;19.444;2023-05-23T02:56:41;98980.67;;;13.51;59.61
59939;BME280;45801;51.810;19.444;2023-05-23T02:59:07;98978.34;;;13.49;60.05
59939;BME280;45801;51.810;19.444;2023-05-23T03:01:34;98977.42;;;13.48;59.89
59939;BME280;45801;51.810;19.444;2023-05-23T03:04:00;98976.69;;;13.47;59.76
59939;BME280;45801;51.810;19.444;2023-05-23T03:06:27;98973.52;;;13.46;59.86
59939;BME280;45801;51.810;19.444;2023-05-23T03:08:54;98969.77;;;13.45;60.10
59939;BME280;45801;51.810;19.444;2023-05-23T03:11:20;98968.54;;;13.45;60.07
59939;BME280;45801;51.810;19.444;2023-05-23T03:13:47;98965.36;;;13.44;60.21
59939;BME280;45801;51.810;19.444;2023-05-23T03:16:14;98962.88;;;13.43;60.10
59939;BME280;45801;51.810;19.444;2023-05-23T03:18:41;98961.98;;;13.42;60.24
59939;BME280;45801;51.810;19.444;2023-05-23T03:21:07;98962.48;;;13.42;60.37
59939;BME280;45801;51.810;19.444;2023-05-23T03:23:34;98963.56;;;13.42;60.28
59939;BME280;45801;51.810;19.444;2023-05-23T03:26:01;98963.56;;;13.43;60.33
59939;BME280;45801;51.810;19.444;2023-05-23T03:28:32;98965.70;;;13.44;60.14
59939;BME280;45801;51.810;19.444;2023-05-23T03:30:58;98963.58;;;13.43;60.19
59939;BME280;45801;51.810;19.444;2023-05-23T03:33:25;98964.13;;;13.44;60.12
59939;BME280;45801;51.810;19.444;2023-05-23T03:35:52;98965.23;;;13.45;60.13
59939;BME280;45801;51.810;19.444;2023-05-23T03:38:18;98966.66;;;13.46;60.21
59939;BME280;45801;51.810;19.444;2023-05-23T03:40:45;98964.25;;;13.48;60.38
59939;BME280;45801;51.810;19.444;2023-05-23T03:43:11;98960.77;;;13.50;60.60
59939;BME280;45801;51.810;19.444;2023-05-23T03:45:38;98961.70;;;13.52;60.46
59939;BME280;45801;51.810;19.444;2023-05-23T03:48:04;98961.77;;;13.54;60.44
59939;BME280;45801;51.810;19.444;2023-05-23T03:50:31;98962.35;;;13.56;60.84
59939;BME280;45801;51.810;19.444;2023-05-23T03:52:57;98962.59;;;13.59;60.83
59939;BME280;45801;51.810;19.444;2023-05-23T03:55:24;98956.67;;;13.61;60.79
59939;BME280;45801;51.810;19.444;2023-05-23T03:57:51;98956.75;;;13.64;61.04
59939;BME280;45801;51.810;19.444;2023-05-23T04:00:19;98955.40;;;13.66;61.16
59939;BME280;45801;51.810;19.444;2023-05-23T04:02:47;98952.81;;;13.69;61.32
59939;BME280;45801;51.810;19.444;2023-05-23T04:05:15;98951.48;;;13.71;61.16
59939;BME280;45801;51.810;19.444;2023-05-23T04:07:42;98951.38;;;13.74;61.31
59939;BME280;45801;51.810;19.444;2023-05-23T04:10:09;98947.95;;;13.78;61.55
59939;BME280;45801;51.810;19.444;2023-05-23T04:12:36;98949.30;;;13.82;61.31
59939;BME280;45801;51.810;19.444;2023-05-23T04:15:02;98945.14;;;13.85;61.21
59939;BME280;45801;51.810;19.444;2023-05-23T04:17:29;98945.27;;;13.90;61.39
59939;BME280;45801;51.810;19.444;2023-05-23T04:19:57;98943.95;;;13.93;61.80
59939;BME280;45801;51.810;19.444;2023-05-23T04:22:23;98941.21;;;13.97;61.74
59939;BME280;45801;51.810;19.444;2023-05-23T04:24:51;98939.76;;;14.02;61.43
59939;BME280;45801;51.810;19.444;2023-05-23T04:27:17;98939.52;;;14.07;61.37
59939;BME280;45801;51.810;19.444;2023-05-23T04:29:43;98936.99;;;14.11;61.33
59939;BME280;45801;51.810;19.444;2023-05-23T04:32:12;98934.66;;;14.17;61.64
59939;BME280;45801;51.810;19.444;2023-05-23T04:34:40;98936.54;;;14.22;61.54
59939;BME280;45801;51.810;19.444;2023-05-23T04:37:06;98936.82;;;14.26;61.52
59939;BME280;45801;51.810;19.444;2023-05-23T04:39:34;98936.75;;;14.31;61.41
59939;BME280;45801;51.810;19.444;2023-05-23T04:42:01;98937.59;;;14.37;61.18
59939;BME280;45801;51.810;19.444;2023-05-23T04:44:27;98936.48;;;14.42;60.80
59939;BME280;45801;51.810;19.444;2023-05-23T04:46:56;98938.38;;;14.48;60.92
59939;BME280;45801;51.810;19.444;2023-05-23T04:49:22;98940.27;;;14.53;61.17
59939;BME280;45801;51.810;19.444;2023-05-23T04:51:50;98940.73;;;14.58;60.64
59939;BME280;45801;51.810;19.444;2023-05-23T04:54:16;98939.52;;;14.65;60.21
59939;BME280;45801;51.810;19.444;2023-05-23T04:56:43;98934.33;;;14.70;59.35
59939;BME280;45801;51.810;19.444;2023-05-23T04:59:09;98932.34;;;14.76;59.44
59939;BME280;45801;51.810;19.444;2023-05-23T05:01:36;98932.82;;;14.82;58.26
59939;BME280;45801;51.810;19.444;2023-05-23T05:04:06;98930.69;;;14.89;58.16
59939;BME280;45801;51.810;19.444;2023-05-23T05:06:32;98929.62;;;14.97;58.09
59939;BME280;45801;51.810;19.444;2023-05-23T05:09:00;98930.64;;;15.04;57.78
59939;BME280;45801;51.810;19.444;2023-05-23T05:11:27;98928.86;;;15.12;57.84
59939;BME280;45801;51.810;19.444;2023-05-23T05:13:53;98926.37;;;15.20;57.81
59939;BME280;45801;51.810;19.444;2023-05-23T05:16:20;98921.73;;;15.27;57.65
59939;BME280;45801;51.810;19.444;2023-05-23T05:18:46;98921.53;;;15.34;57.56
59939;BME280;45801;51.810;19.444;2023-05-23T05:21:13;98917.98;;;15.42;57.26
59939;BME280;45801;51.810;19.444;2023-05-23T05:23:39;98918.11;;;15.49;57.11
59939;BME280;45801;51.810;19.444;2023-05-23T05:26:09;98917.68;;;15.55;57.15
59939;BME280;45801;51.810;19.444;2023-05-23T05:28:35;98914.29;;;15.62;56.69
59939;BME280;45801;51.810;19.444;2023-05-23T05:31:11;98908.23;;;15.69;56.22
59939;BME280;45801;51.810;19.444;2023-05-23T05:33:40;98903.57;;;15.75;56.06
59939;BME280;45801;51.810;19.444;2023-05-23T05:36:07;98905.29;;;15.81;56.06
59939;BME280;45801;51.810;19.444;2023-05-23T05:38:33;98900.27;;;15.87;55.83
59939;BME280;45801;51.810;19.444;2023-05-23T05:41:00;98899.66;;;15.93;55.68
59939;BME280;45801;51.810;19.444;2023-05-23T05:43:27;98900.13;;;15.99;55.59
59939;BME280;45801;51.810;19.444;2023-05-23T05:45:54;98896.67;;;16.05;54.96
59939;BME280;45801;51.810;19.444;2023-05-23T05:48:20;98892.90;;;16.12;54.56
59939;BME280;45801;51.810;19.444;2023-05-23T05:50:46;98896.02;;;16.19;54.40
59939;BME280;45801;51.810;19.444;2023-05-23T05:53:13;98896.11;;;16.26;53.97
59939;BME280;45801;51.810;19.444;2023-05-23T05:55:39;98893.21;;;16.33;54.58
59939;BME280;45801;51.810;19.444;2023-05-23T05:58:06;98892.10;;;16.41;53.51
59939;BME280;45801;51.810;19.444;2023-05-23T06:00:33;98891.67;;;16.49;52.92
59939;BME280;45801;51.810;19.444;2023-05-23T06:03:00;98884.52;;;16.56;51.16
59939;BME280;45801;51.810;19.444;2023-05-23T06:05:27;98881.45;;;16.65;51.88
59939;BME280;45801;51.810;19.444;2023-05-23T06:07:53;98878.77;;;16.75;52.55
59939;BME280;45801;51.810;19.444;2023-05-23T06:10:19;98879.92;;;16.84;51.53
59939;BME280;45801;51.810;19.444;2023-05-23T06:12:46;98876.69;;;16.91;51.26
59939;BME280;45801;51.810;19.444;2023-05-23T06:15:12;98877.49;;;16.99;51.17
59939;BME280;45801;51.810;19.444;2023-05-23T06:17:39;98874.73;;;17.06;51.00
59939;BME280;45801;51.810;19.444;2023-05-23T06:20:06;98875.73;;;17.14;50.96
59939;BME280;45801;51.810;19.444;2023-05-23T06:22:33;98875.09;;;17.21;50.45
59939;BME280;45801;51.810;19.444;2023-05-23T06:24:59;98876.41;;;17.29;51.75
59939;BME280;45801;51.810;19.444;2023-05-23T06:27:26;98875.27;;;17.37;51.75
59939;BME280;45801;51.810;19.444;2023-05-23T06:29:52;98872.51;;;17.45;51.37
59939;BME280;45801;51.810;19.444;2023-05-23T06:32:19;98871.70;;;17.52;50.35
59939;BME280;45801;51.810;19.444;2023-05-23T06:34:45;98867.34;;;17.59;49.87
59939;BME280;45801;51.810;19.444;2023-05-23T06:37:12;98867.23;;;17.66;49.74
59939;BME280;45801;51.810;19.444;2023-05-23T06:39:38;98867.27;;;17.73;50.38
59939;BME280;45801;51.810;19.444;2023-05-23T06:42:05;98866.28;;;17.80;50.10
59939;BME280;45801;51.810;19.444;2023-05-23T06:44:31;98865.48;;;17.88;48.74
59939;BME280;45801;51.810;19.444;2023-05-23T06:46:58;98864.13;;;17.95;49.07
59939;BME280;45801;51.810;19.444;2023-05-23T06:49:24;98859.57;;;18.02;46.88
59939;BME280;45801;51.810;19.444;2023-05-23T06:51:51;98859.10;;;18.11;48.01
59939;BME280;45801;51.810;19.444;2023-05-23T06:54:18;98857.92;;;18.18;47.29
59939;BME280;45801;51.810;19.444;2023-05-23T06:56:44;98852.63;;;18.25;47.48
59939;BME280;45801;51.810;19.444;2023-05-23T06:59:11;98849.84;;;18.31;46.97
59939;BME280;45801;51.810;19.444;2023-05-23T07:01:38;98845.81;;;18.38;44.93
59939;BME280;45801;51.810;19.444;2023-05-23T07:04:04;98839.64;;;18.46;46.92
59939;BME280;45801;51.810;19.444;2023-05-23T07:06:31;98837.91;;;18.53;46.47
59939;BME280;45801;51.810;19.444;2023-05-23T07:08:58;98837.41;;;18.60;44.82
59939;BME280;45801;51.810;19.444;2023-05-23T07:11:24;98832.45;;;18.67;44.28
59939;BME280;45801;51.810;19.444;2023-05-23T07:13:51;98831.44;;;18.75;45.58
59939;BME280;45801;51.810;19.444;2023-05-23T07:16:18;98828.09;;;18.81;45.57
59939;BME280;45801;51.810;19.444;2023-05-23T07:18:44;98826.91;;;18.88;45.56
59939;BME280;45801;51.810;19.444;2023-05-23T07:21:10;98826.92;;;18.95;45.08
59939;BME280;45801;51.810;19.444;2023-05-23T07:23:37;98820.39;;;19.01;44.72
59939;BME280;45801;51.810;19.444;2023-05-23T07:26:03;98819.88;;;19.09;45.07
59939;BME280;45801;51.810;19.444;2023-05-23T07:28:30;98817.05;;;19.16;43.73
59939;BME280;45801;51.810;19.444;2023-05-23T07:30:56;98818.83;;;19.23;42.83
59939;BME280;45801;51.810;19.444;2023-05-23T07:33:23;98819.02;;;19.30;43.69
59939;BME280;45801;51.810;19.444;2023-05-23T07:35:49;98817.96;;;19.37;43.18
59939;BME280;45801;51.810;19.444;2023-05-23T07:38:16;98817.79;;;19.42;41.93
59939;BME280;45801;51.810;19.444;2023-05-23T07:40:42;98813.19;;;19.49;43.39
59939;BME280;45801;51.810;19.444;2023-05-23T07:43:10;98806.80;;;19.56;42.51
59939;BME280;45801;51.810;19.444;2023-05-23T07:45:36;98804.30;;;19.62;42.44
59939;BME280;45801;51.810;19.444;2023-05-23T07:48:03;98803.77;;;19.69;41.64
59939;BME280;45801;51.810;19.444;2023-05-23T07:50:29;98804.48;;;19.76;42.17
59939;BME280;45801;51.810;19.444;2023-05-23T07:52:56;98806.64;;;19.83;42.07
59939;BME280;45801;51.810;19.444;2023-05-23T07:55:23;98806.98;;;19.92;44.13
59939;BME280;45801;51.810;19.444;2023-05-23T07:57:49;98803.59;;;20.00;43.54
59939;BME280;45801;51.810;19.444;2023-05-23T08:00:18;98800.57;;;20.08;41.86
59939;BME280;45801;51.810;19.444;2023-05-23T08:02:44;98802.85;;;20.16;42.31
59939;BME280;45801;51.810;19.444;2023-05-23T08:05:11;98800.35;;;20.22;41.66
59939;BME280;45801;51.810;19.444;2023-05-23T08:07:37;98798.02;;;20.26;42.14
59939;BME280;45801;51.810;19.444;2023-05-23T08:10:04;98796.59;;;20.30;42.59
59939;BME280;45801;51.810;19.444;2023-05-23T08:12:31;98791.77;;;20.33;41.98
59939;BME280;45801;51.810;19.444;2023-05-23T08:14:57;98789.46;;;20.39;42.65
59939;BME280;45801;51.810;19.444;2023-05-23T08:17:24;98788.73;;;20.42;41.03
59939;BME280;45801;51.810;19.444;2023-05-23T08:19:50;98783.38;;;20.46;42.98
59939;BME280;45801;51.810;19.444;2023-05-23T08:22:17;98781.23;;;20.51;42.73
59939;BME280;45801;51.810;19.444;2023-05-23T08:24:43;98785.48;;;20.57;43.44
59939;BME280;45801;51.810;19.444;2023-05-23T08:27:10;98785.63;;;20.64;42.77
59939;BME280;45801;51.810;19.444;2023-05-23T08:29:38;98792.20;;;20.71;41.09
59939;BME280;45801;51.810;19.444;2023-05-23T08:32:05;98782.73;;;20.78;41.55
59939;BME280;45801;51.810;19.444;2023-05-23T08:34:31;98779.86;;;20.85;40.89
59939;BME280;45801;51.810;19.444;2023-05-23T08:36:58;98779.48;;;20.90;39.82
59939;BME280;45801;51.810;19.444;2023-05-23T08:39:24;98779.27;;;20.95;39.77
59939;BME280;45801;51.810;19.444;2023-05-23T08:41:51;98781.73;;;21.01;40.88
59939;BME280;45801;51.810;19.444;2023-05-23T08:44:17;98780.63;;;21.07;40.06
59939;BME280;45801;51.810;19.444;2023-05-23T08:46:45;98777.55;;;21.13;40.06
59939;BME280;45801;51.810;19.444;2023-05-23T08:49:12;98775.02;;;21.18;40.32
59939;BME280;45801;51.810;19.444;2023-05-23T08:51:43;98771.96;;;21.23;39.10
59939;BME280;45801;51.810;19.444;2023-05-23T08:54:10;98774.23;;;21.28;39.91
59939;BME280;45801;51.810;19.444;2023-05-23T08:56:42;98772.23;;;21.34;39.44
59939;BME280;45801;51.810;19.444;2023-05-23T08:59:09;98771.48;;;21.42;40.76
59939;BME280;45801;51.810;19.444;2023-05-23T09:01:36;98768.94;;;21.48;40.81
59939;BME280;45801;51.810;19.444;2023-05-23T09:04:05;98771.07;;;21.51;38.22
59939;BME280;45801;51.810;19.444;2023-05-23T09:06:33;98771.06;;;21.52;38.50
59939;BME280;45801;51.810;19.444;2023-05-23T09:09:00;98768.23;;;21.51;37.44
59939;BME280;45801;51.810;19.444;2023-05-23T09:11:26;98773.93;;;21.50;39.03
59939;BME280;45801;51.810;19.444;2023-05-23T09:13:53;98768.73;;;21.48;38.68
59939;BME280;45801;51.810;19.444;2023-05-23T09:16:22;98768.59;;;21.46;38.72
59939;BME280;45801;51.810;19.444;2023-05-23T09:18:49;98771.11;;;21.43;38.96
59939;BME280;45801;51.810;19.444;2023-05-23T09:21:15;98770.05;;;21.39;37.29
59939;BME280;45801;51.810;19.444;2023-05-23T09:23:42;98770.27;;;21.37;38.98
59939;BME280;45801;51.810;19.444;2023-05-23T09:26:10;98768.31;;;21.36;39.16
59939;BME280;45801;51.810;19.444;2023-05-23T09:28:41;98767.57;;;21.39;40.10
59939;BME280;45801;51.810;19.444;2023-05-23T09:31:08;98764.86;;;21.44;40.08
59939;BME280;45801;51.810;19.444;2023-05-23T09:33:46;98762.70;;;21.50;39.57
59939;BME280;45801;51.810;19.444;2023-05-23T09:36:17;98764.43;;;21.57;39.56
59939;BME280;45801;51.810;19.444;2023-05-23T09:38:45;98768.48;;;21.64;37.85
59939;BME280;45801;51.810;19.444;2023-05-23T09:41:12;98767.86;;;21.72;37.41
59939;BME280;45801;51.810;19.444;2023-05-23T09:43:48;98759.40;;;21.81;38.74
59939;BME280;45801;51.810;19.444;2023-05-23T09:46:15;98758.60;;;21.90;38.85
59939;BME280;45801;51.810;19.444;2023-05-23T09:48:48;98763.65;;;22.02;39.56
59939;BME280;45801;51.810;19.444;2023-05-23T09:51:21;98760.52;;;22.10;37.92
59939;BME280;45801;51.810;19.444;2023-05-23T09:53:49;98761.88;;;22.17;36.02
59939;BME280;45801;51.810;19.444;2023-05-23T09:56:16;98754.50;;;22.23;36.72
59939;BME280;45801;51.810;19.444;2023-05-23T09:58:48;98747.15;;;22.26;36.25
59939;BME280;45801;51.810;19.444;2023-05-23T10:01:15;98754.08;;;22.31;36.85
59939;BME280;45801;51.810;19.444;2023-05-23T10:03:52;98759.59;;;22.33;36.57
59939;BME280;45801;51.810;19.444;2023-05-23T10:06:31;98757.59;;;22.37;37.09
59939;BME280;45801;51.810;19.444;2023-05-23T10:09:04;98749.22;;;22.35;33.11
59939;BME280;45801;51.810;19.444;2023-05-23T10:14:04;98744.32;;;22.43;35.35
59939;BME280;45801;51.810;19.444;2023-05-23T10:16:54;98743.02;;;22.46;34.56
59939;BME280;45801;51.810;19.444;2023-05-23T10:19:57;98745.26;;;22.53;36.58
59939;BME280;45801;51.810;19.444;2023-05-23T10:22:26;98741.39;;;22.62;35.95
59939;BME280;45801;51.810;19.444;2023-05-23T10:24:52;98740.77;;;22.68;35.32
59939;BME280;45801;51.810;19.444;2023-05-23T10:27:19;98736.96;;;22.72;35.23
59939;BME280;45801;51.810;19.444;2023-05-23T10:29:46;98733.66;;;22.80;35.76
59939;BME280;45801;51.810;19.444;2023-05-23T10:32:13;98733.92;;;22.85;35.10
59939;BME280;45801;51.810;19.444;2023-05-23T10:34:49;98730.61;;;22.92;34.95
59939;BME280;45801;51.810;19.444;2023-05-23T10:37:26;98731.38;;;23.01;35.23
59939;BME280;45801;51.810;19.444;2023-05-23T10:43:28;98719.20;;;23.17;35.65
59939;BME280;45801;51.810;19.444;2023-05-23T10:45:56;98723.14;;;23.27;35.44
59939;BME280;45801;51.810;19.444;2023-05-23T10:48:40;98722.50;;;23.33;33.19
59939;BME280;45801;51.810;19.444;2023-05-23T10:51:09;98719.27;;;23.34;32.67
59939;BME280;45801;51.810;19.444;2023-05-23T10:53:40;98715.43;;;23.40;33.81
59939;BME280;45801;51.810;19.444;2023-05-23T10:56:09;98712.10;;;23.46;34.10
59939;BME280;45801;51.810;19.444;2023-05-23T10:58:39;98717.67;;;23.55;35.65
59939;BME280;45801;51.810;19.444;2023-05-23T11:01:12;98717.41;;;23.59;32.75
59939;BME280;45801;51.810;19.444;2023-05-23T11:03:48;98709.71;;;23.60;32.75
59939;BME280;45801;51.810;19.444;2023-05-23T11:06:42;98710.16;;;23.65;34.26
59939;BME280;45801;51.810;19.444;2023-05-23T11:09:17;98711.09;;;23.73;34.81
59939;BME280;45801;51.810;19.444;2023-05-23T11:14:31;98702.42;;;23.77;33.93
59939;BME280;45801;51.810;19.444;2023-05-23T11:17:00;98703.64;;;23.79;34.26
59939;BME280;45801;51.810;19.444;2023-05-23T11:19:28;98703.72;;;23.86;34.16
59939;BME280;45801;51.810;19.444;2023-05-23T11:22:02;98699.63;;;23.94;35.23
59939;BME280;45801;51.810;19.444;2023-05-23T11:24:54;98698.25;;;24.01;35.62
59939;BME280;45801;51.810;19.444;2023-05-23T11:27:25;98699.02;;;23.99;32.57
59939;BME280;45801;51.810;19.444;2023-05-23T11:30:09;98700.05;;;23.91;33.14
59939;BME280;45801;51.810;19.444;2023-05-23T11:32:36;98703.95;;;23.82;34.32
59939;BME280;45801;51.810;19.444;2023-05-23T11:35:07;98701.33;;;23.69;34.16
59939;BME280;45801;51.810;19.444;2023-05-23T11:37:36;98697.45;;;23.56;34.34
59939;BME280;45801;51.810;19.444;2023-05-23T11:40:29;98699.06;;;23.45;34.33
59939;BME280;45801;51.810;19.444;2023-05-23T11:42:57;98702.08;;;23.37;34.08
59939;BME280;45801;51.810;19.444;2023-05-23T11:45:26;98697.36;;;23.30;33.96
59939;BME280;45801;51.810;19.444;2023-05-23T11:47:52;98700.27;;;23.28;35.11
59939;BME280;45801;51.810;19.444;2023-05-23T11:50:19;98702.23;;;23.27;36.40
59939;BME280;45801;51.810;19.444;2023-05-23T11:52:47;98699.17;;;23.28;35.98
59939;BME280;45801;51.810;19.444;2023-05-23T11:55:18;98696.69;;;23.27;34.49
59939;BME280;45801;51.810;19.444;2023-05-23T11:57:45;98696.86;;;23.28;35.33
59939;BME280;45801;51.810;19.444;2023-05-23T12:00:12;98700.77;;;23.29;35.44
59939;BME280;45801;51.810;19.444;2023-05-23T12:02:41;98698.95;;;23.31;35.61
59939;BME280;45801;51.810;19.444;2023-05-23T12:05:12;98700.20;;;23.32;36.05
59939;BME280;45801;51.810;19.444;2023-05-23T12:07:43;98696.46;;;23.30;34.94
59939;BME280;45801;51.810;19.444;2023-05-23T12:10:10;98690.45;;;23.27;35.57
59939;BME280;45801;51.810;19.444;2023-05-23T12:12:37;98690.66;;;23.24;33.89
59939;BME280;45801;51.810;19.444;2023-05-23T12:15:07;98689.92;;;23.25;33.81
59939;BME280;45801;51.810;19.444;2023-05-23T12:17:36;98689.91;;;23.26;34.12
59939;BME280;45801;51.810;19.444;2023-05-23T12:20:06;98690.45;;;23.25;34.60
59939;BME280;45801;51.810;19.444;2023-05-23T12:22:33;98688.69;;;23.25;35.90
59939;BME280;45801;51.810;19.444;2023-05-23T12:25:00;98686.02;;;23.24;35.96
59939;BME280;45801;51.810;19.444;2023-05-23T12:27:29;98687.32;;;23.21;35.59
59939;BME280;45801;51.810;19.444;2023-05-23T12:30:24;98685.40;;;23.19;36.61
59939;BME280;45801;51.810;19.444;2023-05-23T12:32:50;98687.23;;;23.17;37.54
59939;BME280;45801;51.810;19.444;2023-05-23T12:35:17;98686.18;;;23.15;37.46
59939;BME280;45801;51.810;19.444;2023-05-23T12:37:44;98683.73;;;23.10;37.44
59939;BME280;45801;51.810;19.444;2023-05-23T12:40:16;98683.79;;;23.05;37.52
59939;BME280;45801;51.810;19.444;2023-05-23T12:42:52;98677.67;;;22.98;37.09
59939;BME280;45801;51.810;19.444;2023-05-23T12:45:35;98674.23;;;22.89;36.56
59939;BME280;45801;51.810;19.444;2023-05-23T12:48:02;98675.93;;;22.82;37.18
59939;BME280;45801;51.810;19.444;2023-05-23T12:50:29;98672.46;;;22.76;37.36
59939;BME280;45801;51.810;19.444;2023-05-23T12:52:56;98670.02;;;22.72;38.92
59939;BME280;45801;51.810;19.444;2023-05-23T12:55:23;98666.13;;;22.69;38.22
59939;BME280;45801;51.810;19.444;2023-05-23T12:57:49;98667.20;;;22.70;38.70
59939;BME280;45801;51.810;19.444;2023-05-23T13:00:16;98664.48;;;22.72;37.97
59939;BME280;45801;51.810;19.444;2023-05-23T13:02:44;98660.55;;;22.73;36.84
59939;BME280;45801;51.810;19.444;2023-05-23T13:05:11;98660.70;;;22.75;37.79
59939;BME280;45801;51.810;19.444;2023-05-23T13:07:38;98661.88;;;22.79;38.01
59939;BME280;45801;51.810;19.444;2023-05-23T13:10:05;98661.65;;;22.83;37.52
59939;BME280;45801;51.810;19.444;2023-05-23T13:12:31;98659.63;;;22.86;37.30